<?xml version="1.0" encoding="UTF-8" standalone="no" ?>
<gpx xmlns="http://www.topografix.com/GPX/1/1" xmlns:xsi="http://www.w3.org/2001/XMLSchema-instance" xsi:schemaLocation="http://www.topografix.com/GPX/1/1 http://www.topografix.com/GPX/1/1/gpx.xsd" version="1.1" creator="VisuGPX - https://www.visugpx.com">
  <metadata>
    <name>GR6 étp 64 (32)-29/07/2020 St-Pierre de Mons Langon</name>
  </metadata>
  <trk>
    <name><![CDATA[32-29/07/2020 St-Pierre de Mons Langon]]></name>
    <trkseg>
      <trkpt lat="44.55703" lon="-0.20095">
        <ele>30.42</ele>
        <time>2020-07-29T06:15:05Z</time>
      </trkpt>
      <trkpt lat="44.55703" lon="-0.20098">
        <ele>31.38</ele>
        <time>2020-07-29T06:15:28Z</time>
      </trkpt>
      <trkpt lat="44.55704" lon="-0.20095">
        <ele>29.46</ele>
        <time>2020-07-29T06:15:50Z</time>
      </trkpt>
      <trkpt lat="44.55701" lon="-0.20093">
        <ele>27.53</ele>
        <time>2020-07-29T06:16:05Z</time>
      </trkpt>
      <trkpt lat="44.55702" lon="-0.20098">
        <ele>26.57</ele>
        <time>2020-07-29T06:16:29Z</time>
      </trkpt>
      <trkpt lat="44.55701" lon="-0.20101">
        <ele>26.57</ele>
        <time>2020-07-29T06:16:56Z</time>
      </trkpt>
      <trkpt lat="44.55701" lon="-0.20099">
        <ele>26.57</ele>
        <time>2020-07-29T06:17:21Z</time>
      </trkpt>
      <trkpt lat="44.557" lon="-0.20095">
        <ele>26.57</ele>
        <time>2020-07-29T06:17:48Z</time>
      </trkpt>
      <trkpt lat="44.55699" lon="-0.20098">
        <ele>26.57</ele>
        <time>2020-07-29T06:18:14Z</time>
      </trkpt>
      <trkpt lat="44.55697" lon="-0.20093">
        <ele>26.57</ele>
        <time>2020-07-29T06:18:41Z</time>
      </trkpt>
      <trkpt lat="44.55699" lon="-0.20086">
        <ele>27.05</ele>
        <time>2020-07-29T06:19:06Z</time>
      </trkpt>
      <trkpt lat="44.55698" lon="-0.2008">
        <ele>27.05</ele>
        <time>2020-07-29T06:19:35Z</time>
      </trkpt>
      <trkpt lat="44.557" lon="-0.20083">
        <ele>27.05</ele>
        <time>2020-07-29T06:19:56Z</time>
      </trkpt>
      <trkpt lat="44.55702" lon="-0.2008">
        <ele>27.05</ele>
        <time>2020-07-29T06:20:22Z</time>
      </trkpt>
      <trkpt lat="44.55698" lon="-0.2008">
        <ele>27.05</ele>
        <time>2020-07-29T06:20:52Z</time>
      </trkpt>
      <trkpt lat="44.55702" lon="-0.20077">
        <ele>27.53</ele>
        <time>2020-07-29T06:21:19Z</time>
      </trkpt>
      <trkpt lat="44.55703" lon="-0.20077">
        <ele>27.53</ele>
        <time>2020-07-29T06:21:41Z</time>
      </trkpt>
      <trkpt lat="44.55714" lon="-0.20073">
        <ele>26.57</ele>
        <time>2020-07-29T06:22:05Z</time>
      </trkpt>
      <trkpt lat="44.55724" lon="-0.20082">
        <ele>26.57</ele>
        <time>2020-07-29T06:22:23Z</time>
      </trkpt>
      <trkpt lat="44.5573" lon="-0.2009">
        <ele>26.09</ele>
        <time>2020-07-29T06:22:37Z</time>
      </trkpt>
      <trkpt lat="44.55734" lon="-0.20097">
        <ele>26.09</ele>
        <time>2020-07-29T06:22:44Z</time>
      </trkpt>
      <trkpt lat="44.55749" lon="-0.20112">
        <ele>25.13</ele>
        <time>2020-07-29T06:23:04Z</time>
      </trkpt>
      <trkpt lat="44.55762" lon="-0.20126">
        <ele>24.17</ele>
        <time>2020-07-29T06:23:21Z</time>
      </trkpt>
      <trkpt lat="44.55768" lon="-0.20136">
        <ele>23.21</ele>
        <time>2020-07-29T06:23:32Z</time>
      </trkpt>
      <trkpt lat="44.55788" lon="-0.20172">
        <ele>23.21</ele>
        <time>2020-07-29T06:23:57Z</time>
      </trkpt>
      <trkpt lat="44.55796" lon="-0.20195">
        <ele>21.29</ele>
        <time>2020-07-29T06:24:14Z</time>
      </trkpt>
      <trkpt lat="44.55804" lon="-0.20219">
        <ele>20.32</ele>
        <time>2020-07-29T06:24:28Z</time>
      </trkpt>
      <trkpt lat="44.5581" lon="-0.20251">
        <ele>18.88</ele>
        <time>2020-07-29T06:24:48Z</time>
      </trkpt>
      <trkpt lat="44.55815" lon="-0.20258">
        <ele>18.88</ele>
        <time>2020-07-29T06:24:53Z</time>
      </trkpt>
      <trkpt lat="44.5582" lon="-0.20265">
        <ele>18.88</ele>
        <time>2020-07-29T06:24:57Z</time>
      </trkpt>
      <trkpt lat="44.55829" lon="-0.20293">
        <ele>17.44</ele>
        <time>2020-07-29T06:25:14Z</time>
      </trkpt>
      <trkpt lat="44.55842" lon="-0.20328">
        <ele>17.44</ele>
        <time>2020-07-29T06:25:36Z</time>
      </trkpt>
      <trkpt lat="44.55859" lon="-0.20341">
        <ele>16.96</ele>
        <time>2020-07-29T06:25:52Z</time>
      </trkpt>
      <trkpt lat="44.55884" lon="-0.20344">
        <ele>16.96</ele>
        <time>2020-07-29T06:26:12Z</time>
      </trkpt>
      <trkpt lat="44.5591" lon="-0.20343">
        <ele>16</ele>
        <time>2020-07-29T06:26:32Z</time>
      </trkpt>
      <trkpt lat="44.55926" lon="-0.20342">
        <ele>14.56</ele>
        <time>2020-07-29T06:26:49Z</time>
      </trkpt>
      <trkpt lat="44.55958" lon="-0.20341">
        <ele>14.08</ele>
        <time>2020-07-29T06:27:12Z</time>
      </trkpt>
      <trkpt lat="44.55983" lon="-0.20339">
        <ele>13.6</ele>
        <time>2020-07-29T06:27:31Z</time>
      </trkpt>
      <trkpt lat="44.56008" lon="-0.20337">
        <ele>14.08</ele>
        <time>2020-07-29T06:27:53Z</time>
      </trkpt>
      <trkpt lat="44.56022" lon="-0.20354">
        <ele>13.6</ele>
        <time>2020-07-29T06:28:13Z</time>
      </trkpt>
      <trkpt lat="44.56026" lon="-0.20381">
        <ele>13.6</ele>
        <time>2020-07-29T06:28:31Z</time>
      </trkpt>
      <trkpt lat="44.56027" lon="-0.20387">
        <ele>14.08</ele>
        <time>2020-07-29T06:28:34Z</time>
      </trkpt>
      <trkpt lat="44.56027" lon="-0.20417">
        <ele>14.56</ele>
        <time>2020-07-29T06:28:51Z</time>
      </trkpt>
      <trkpt lat="44.56027" lon="-0.20446">
        <ele>14.56</ele>
        <time>2020-07-29T06:29:09Z</time>
      </trkpt>
      <trkpt lat="44.56025" lon="-0.20472">
        <ele>14.56</ele>
        <time>2020-07-29T06:29:29Z</time>
      </trkpt>
      <trkpt lat="44.55998" lon="-0.20477">
        <ele>13.6</ele>
        <time>2020-07-29T06:29:49Z</time>
      </trkpt>
      <trkpt lat="44.55987" lon="-0.20486">
        <ele>14.56</ele>
        <time>2020-07-29T06:29:58Z</time>
      </trkpt>
      <trkpt lat="44.55978" lon="-0.20494">
        <ele>15.04</ele>
        <time>2020-07-29T06:30:07Z</time>
      </trkpt>
      <trkpt lat="44.55963" lon="-0.20515">
        <ele>14.56</ele>
        <time>2020-07-29T06:30:24Z</time>
      </trkpt>
      <trkpt lat="44.55946" lon="-0.20546">
        <ele>14.56</ele>
        <time>2020-07-29T06:30:46Z</time>
      </trkpt>
      <trkpt lat="44.55942" lon="-0.20552">
        <ele>13.6</ele>
        <time>2020-07-29T06:30:51Z</time>
      </trkpt>
      <trkpt lat="44.55933" lon="-0.20579">
        <ele>14.08</ele>
        <time>2020-07-29T06:31:11Z</time>
      </trkpt>
      <trkpt lat="44.55932" lon="-0.20583">
        <ele>12.63</ele>
        <time>2020-07-29T06:31:14Z</time>
      </trkpt>
      <trkpt lat="44.55928" lon="-0.20596">
        <ele>13.6</ele>
        <time>2020-07-29T06:31:22Z</time>
      </trkpt>
      <trkpt lat="44.55923" lon="-0.20614">
        <ele>13.6</ele>
        <time>2020-07-29T06:31:35Z</time>
      </trkpt>
      <trkpt lat="44.5591" lon="-0.2065">
        <ele>13.6</ele>
        <time>2020-07-29T06:31:57Z</time>
      </trkpt>
      <trkpt lat="44.55908" lon="-0.20655">
        <ele>12.63</ele>
        <time>2020-07-29T06:32:00Z</time>
      </trkpt>
      <trkpt lat="44.55906" lon="-0.20659">
        <ele>14.08</ele>
        <time>2020-07-29T06:32:03Z</time>
      </trkpt>
      <trkpt lat="44.55902" lon="-0.20669">
        <ele>12.15</ele>
        <time>2020-07-29T06:32:10Z</time>
      </trkpt>
      <trkpt lat="44.55901" lon="-0.20673">
        <ele>13.6</ele>
        <time>2020-07-29T06:32:13Z</time>
      </trkpt>
      <trkpt lat="44.55892" lon="-0.20698">
        <ele>13.6</ele>
        <time>2020-07-29T06:32:31Z</time>
      </trkpt>
      <trkpt lat="44.55887" lon="-0.2072">
        <ele>13.6</ele>
        <time>2020-07-29T06:32:50Z</time>
      </trkpt>
      <trkpt lat="44.55883" lon="-0.2073">
        <ele>13.6</ele>
        <time>2020-07-29T06:33:00Z</time>
      </trkpt>
      <trkpt lat="44.5588" lon="-0.20736">
        <ele>13.6</ele>
        <time>2020-07-29T06:33:05Z</time>
      </trkpt>
      <trkpt lat="44.5587" lon="-0.20767">
        <ele>14.08</ele>
        <time>2020-07-29T06:33:26Z</time>
      </trkpt>
      <trkpt lat="44.55861" lon="-0.20796">
        <ele>13.12</ele>
        <time>2020-07-29T06:33:46Z</time>
      </trkpt>
      <trkpt lat="44.55859" lon="-0.20803">
        <ele>14.56</ele>
        <time>2020-07-29T06:33:51Z</time>
      </trkpt>
      <trkpt lat="44.5585" lon="-0.20834">
        <ele>14.56</ele>
        <time>2020-07-29T06:34:10Z</time>
      </trkpt>
      <trkpt lat="44.5584" lon="-0.20865">
        <ele>14.56</ele>
        <time>2020-07-29T06:34:30Z</time>
      </trkpt>
      <trkpt lat="44.55839" lon="-0.20871">
        <ele>14.56</ele>
        <time>2020-07-29T06:34:35Z</time>
      </trkpt>
      <trkpt lat="44.55828" lon="-0.20901">
        <ele>15.04</ele>
        <time>2020-07-29T06:34:55Z</time>
      </trkpt>
      <trkpt lat="44.55819" lon="-0.20932">
        <ele>15.04</ele>
        <time>2020-07-29T06:35:15Z</time>
      </trkpt>
      <trkpt lat="44.55812" lon="-0.20952">
        <ele>14.56</ele>
        <time>2020-07-29T06:35:29Z</time>
      </trkpt>
      <trkpt lat="44.55805" lon="-0.20979">
        <ele>14.56</ele>
        <time>2020-07-29T06:35:48Z</time>
      </trkpt>
      <trkpt lat="44.55792" lon="-0.21009">
        <ele>15.52</ele>
        <time>2020-07-29T06:36:07Z</time>
      </trkpt>
      <trkpt lat="44.55786" lon="-0.2103">
        <ele>15.52</ele>
        <time>2020-07-29T06:36:25Z</time>
      </trkpt>
      <trkpt lat="44.55777" lon="-0.21054">
        <ele>15.52</ele>
        <time>2020-07-29T06:36:41Z</time>
      </trkpt>
      <trkpt lat="44.55768" lon="-0.21083">
        <ele>14.08</ele>
        <time>2020-07-29T06:36:58Z</time>
      </trkpt>
      <trkpt lat="44.55767" lon="-0.21087">
        <ele>15.52</ele>
        <time>2020-07-29T06:37:00Z</time>
      </trkpt>
      <trkpt lat="44.55765" lon="-0.21091">
        <ele>14.56</ele>
        <time>2020-07-29T06:37:03Z</time>
      </trkpt>
      <trkpt lat="44.55764" lon="-0.21094">
        <ele>15.52</ele>
        <time>2020-07-29T06:37:05Z</time>
      </trkpt>
      <trkpt lat="44.55753" lon="-0.21126">
        <ele>14.08</ele>
        <time>2020-07-29T06:37:27Z</time>
      </trkpt>
      <trkpt lat="44.55742" lon="-0.2115">
        <ele>13.6</ele>
        <time>2020-07-29T06:37:44Z</time>
      </trkpt>
      <trkpt lat="44.55724" lon="-0.21177">
        <ele>13.12</ele>
        <time>2020-07-29T06:38:04Z</time>
      </trkpt>
      <trkpt lat="44.55709" lon="-0.2121">
        <ele>12.63</ele>
        <time>2020-07-29T06:38:26Z</time>
      </trkpt>
      <trkpt lat="44.55705" lon="-0.21247">
        <ele>12.63</ele>
        <time>2020-07-29T06:38:48Z</time>
      </trkpt>
      <trkpt lat="44.55706" lon="-0.21252">
        <ele>12.63</ele>
        <time>2020-07-29T06:38:51Z</time>
      </trkpt>
      <trkpt lat="44.55706" lon="-0.21275">
        <ele>12.15</ele>
        <time>2020-07-29T06:39:04Z</time>
      </trkpt>
      <trkpt lat="44.55707" lon="-0.21308">
        <ele>12.15</ele>
        <time>2020-07-29T06:39:24Z</time>
      </trkpt>
      <trkpt lat="44.5571" lon="-0.21329">
        <ele>11.67</ele>
        <time>2020-07-29T06:39:40Z</time>
      </trkpt>
      <trkpt lat="44.55711" lon="-0.21335">
        <ele>10.23</ele>
        <time>2020-07-29T06:39:44Z</time>
      </trkpt>
      <trkpt lat="44.55713" lon="-0.21362">
        <ele>11.67</ele>
        <time>2020-07-29T06:40:02Z</time>
      </trkpt>
      <trkpt lat="44.55713" lon="-0.21372">
        <ele>9.75</ele>
        <time>2020-07-29T06:40:09Z</time>
      </trkpt>
      <trkpt lat="44.55713" lon="-0.2138">
        <ele>11.19</ele>
        <time>2020-07-29T06:40:13Z</time>
      </trkpt>
      <trkpt lat="44.55709" lon="-0.21418">
        <ele>9.27</ele>
        <time>2020-07-29T06:40:28Z</time>
      </trkpt>
      <trkpt lat="44.55708" lon="-0.21422">
        <ele>11.19</ele>
        <time>2020-07-29T06:40:30Z</time>
      </trkpt>
      <trkpt lat="44.55705" lon="-0.21438">
        <ele>9.27</ele>
        <time>2020-07-29T06:40:39Z</time>
      </trkpt>
      <trkpt lat="44.55704" lon="-0.21442">
        <ele>10.71</ele>
        <time>2020-07-29T06:40:41Z</time>
      </trkpt>
      <trkpt lat="44.55703" lon="-0.21456">
        <ele>9.27</ele>
        <time>2020-07-29T06:40:51Z</time>
      </trkpt>
      <trkpt lat="44.55703" lon="-0.2146">
        <ele>10.71</ele>
        <time>2020-07-29T06:40:53Z</time>
      </trkpt>
      <trkpt lat="44.55699" lon="-0.2149">
        <ele>8.79</ele>
        <time>2020-07-29T06:41:12Z</time>
      </trkpt>
      <trkpt lat="44.55699" lon="-0.21499">
        <ele>10.23</ele>
        <time>2020-07-29T06:41:19Z</time>
      </trkpt>
      <trkpt lat="44.55697" lon="-0.21517">
        <ele>8.31</ele>
        <time>2020-07-29T06:41:31Z</time>
      </trkpt>
      <trkpt lat="44.55696" lon="-0.21522">
        <ele>9.75</ele>
        <time>2020-07-29T06:41:34Z</time>
      </trkpt>
      <trkpt lat="44.55692" lon="-0.21558">
        <ele>9.27</ele>
        <time>2020-07-29T06:41:55Z</time>
      </trkpt>
      <trkpt lat="44.5569" lon="-0.21566">
        <ele>9.75</ele>
        <time>2020-07-29T06:42:13Z</time>
      </trkpt>
      <trkpt lat="44.55681" lon="-0.21597">
        <ele>9.75</ele>
        <time>2020-07-29T06:42:34Z</time>
      </trkpt>
      <trkpt lat="44.55673" lon="-0.21618">
        <ele>8.31</ele>
        <time>2020-07-29T06:42:47Z</time>
      </trkpt>
      <trkpt lat="44.55667" lon="-0.21638">
        <ele>7.83</ele>
        <time>2020-07-29T06:42:59Z</time>
      </trkpt>
      <trkpt lat="44.55665" lon="-0.21644">
        <ele>9.75</ele>
        <time>2020-07-29T06:43:03Z</time>
      </trkpt>
      <trkpt lat="44.55662" lon="-0.21648">
        <ele>8.31</ele>
        <time>2020-07-29T06:43:06Z</time>
      </trkpt>
      <trkpt lat="44.55655" lon="-0.2167">
        <ele>9.75</ele>
        <time>2020-07-29T06:43:21Z</time>
      </trkpt>
      <trkpt lat="44.55654" lon="-0.21673">
        <ele>7.35</ele>
        <time>2020-07-29T06:43:23Z</time>
      </trkpt>
      <trkpt lat="44.55653" lon="-0.21676">
        <ele>9.27</ele>
        <time>2020-07-29T06:43:25Z</time>
      </trkpt>
      <trkpt lat="44.55645" lon="-0.21704">
        <ele>7.83</ele>
        <time>2020-07-29T06:43:42Z</time>
      </trkpt>
      <trkpt lat="44.55642" lon="-0.21715">
        <ele>7.35</ele>
        <time>2020-07-29T06:43:49Z</time>
      </trkpt>
      <trkpt lat="44.55641" lon="-0.21718">
        <ele>8.79</ele>
        <time>2020-07-29T06:43:51Z</time>
      </trkpt>
      <trkpt lat="44.55635" lon="-0.21735">
        <ele>7.35</ele>
        <time>2020-07-29T06:44:01Z</time>
      </trkpt>
      <trkpt lat="44.55633" lon="-0.21741">
        <ele>8.79</ele>
        <time>2020-07-29T06:44:05Z</time>
      </trkpt>
      <trkpt lat="44.55625" lon="-0.21776">
        <ele>8.31</ele>
        <time>2020-07-29T06:44:26Z</time>
      </trkpt>
      <trkpt lat="44.55621" lon="-0.218">
        <ele>6.87</ele>
        <time>2020-07-29T06:44:41Z</time>
      </trkpt>
      <trkpt lat="44.5562" lon="-0.21805">
        <ele>8.31</ele>
        <time>2020-07-29T06:44:44Z</time>
      </trkpt>
      <trkpt lat="44.55619" lon="-0.21812">
        <ele>6.87</ele>
        <time>2020-07-29T06:44:49Z</time>
      </trkpt>
      <trkpt lat="44.55619" lon="-0.21815">
        <ele>8.31</ele>
        <time>2020-07-29T06:44:51Z</time>
      </trkpt>
      <trkpt lat="44.55614" lon="-0.21846">
        <ele>6.87</ele>
        <time>2020-07-29T06:45:08Z</time>
      </trkpt>
      <trkpt lat="44.55613" lon="-0.21849">
        <ele>8.31</ele>
        <time>2020-07-29T06:45:10Z</time>
      </trkpt>
      <trkpt lat="44.55605" lon="-0.21874">
        <ele>7.83</ele>
        <time>2020-07-29T06:45:28Z</time>
      </trkpt>
      <trkpt lat="44.55602" lon="-0.21883">
        <ele>6.87</ele>
        <time>2020-07-29T06:45:33Z</time>
      </trkpt>
      <trkpt lat="44.55599" lon="-0.21891">
        <ele>8.31</ele>
        <time>2020-07-29T06:45:39Z</time>
      </trkpt>
      <trkpt lat="44.55594" lon="-0.21911">
        <ele>6.87</ele>
        <time>2020-07-29T06:45:52Z</time>
      </trkpt>
      <trkpt lat="44.55592" lon="-0.21918">
        <ele>8.31</ele>
        <time>2020-07-29T06:45:56Z</time>
      </trkpt>
      <trkpt lat="44.55582" lon="-0.21956">
        <ele>6.39</ele>
        <time>2020-07-29T06:46:20Z</time>
      </trkpt>
      <trkpt lat="44.55577" lon="-0.21971">
        <ele>8.79</ele>
        <time>2020-07-29T06:46:29Z</time>
      </trkpt>
      <trkpt lat="44.5557" lon="-0.21988">
        <ele>7.35</ele>
        <time>2020-07-29T06:46:39Z</time>
      </trkpt>
      <trkpt lat="44.55569" lon="-0.21993">
        <ele>8.79</ele>
        <time>2020-07-29T06:46:42Z</time>
      </trkpt>
      <trkpt lat="44.55559" lon="-0.2202">
        <ele>8.79</ele>
        <time>2020-07-29T06:47:00Z</time>
      </trkpt>
      <trkpt lat="44.55554" lon="-0.22037">
        <ele>7.35</ele>
        <time>2020-07-29T06:47:10Z</time>
      </trkpt>
      <trkpt lat="44.55553" lon="-0.22044">
        <ele>8.79</ele>
        <time>2020-07-29T06:47:14Z</time>
      </trkpt>
      <trkpt lat="44.55546" lon="-0.22078">
        <ele>8.31</ele>
        <time>2020-07-29T06:47:34Z</time>
      </trkpt>
      <trkpt lat="44.55539" lon="-0.22104">
        <ele>8.31</ele>
        <time>2020-07-29T06:47:51Z</time>
      </trkpt>
      <trkpt lat="44.55534" lon="-0.22114">
        <ele>9.75</ele>
        <time>2020-07-29T06:47:57Z</time>
      </trkpt>
      <trkpt lat="44.55529" lon="-0.22124">
        <ele>8.31</ele>
        <time>2020-07-29T06:48:04Z</time>
      </trkpt>
      <trkpt lat="44.5552" lon="-0.22155">
        <ele>9.75</ele>
        <time>2020-07-29T06:48:23Z</time>
      </trkpt>
      <trkpt lat="44.55513" lon="-0.22173">
        <ele>9.75</ele>
        <time>2020-07-29T06:48:38Z</time>
      </trkpt>
      <trkpt lat="44.555" lon="-0.22206">
        <ele>9.75</ele>
        <time>2020-07-29T06:49:01Z</time>
      </trkpt>
      <trkpt lat="44.55492" lon="-0.22223">
        <ele>8.31</ele>
        <time>2020-07-29T06:49:21Z</time>
      </trkpt>
      <trkpt lat="44.55489" lon="-0.22235">
        <ele>8.31</ele>
        <time>2020-07-29T06:49:38Z</time>
      </trkpt>
      <trkpt lat="44.5548" lon="-0.22261">
        <ele>8.31</ele>
        <time>2020-07-29T06:50:00Z</time>
      </trkpt>
      <trkpt lat="44.55472" lon="-0.22286">
        <ele>8.31</ele>
        <time>2020-07-29T06:50:19Z</time>
      </trkpt>
      <trkpt lat="44.55463" lon="-0.2231">
        <ele>8.31</ele>
        <time>2020-07-29T06:50:39Z</time>
      </trkpt>
      <trkpt lat="44.55456" lon="-0.22341">
        <ele>8.79</ele>
        <time>2020-07-29T06:51:01Z</time>
      </trkpt>
      <trkpt lat="44.55451" lon="-0.22368">
        <ele>8.79</ele>
        <time>2020-07-29T06:51:21Z</time>
      </trkpt>
      <trkpt lat="44.55447" lon="-0.22397">
        <ele>8.79</ele>
        <time>2020-07-29T06:51:42Z</time>
      </trkpt>
      <trkpt lat="44.55443" lon="-0.22416">
        <ele>8.79</ele>
        <time>2020-07-29T06:51:59Z</time>
      </trkpt>
      <trkpt lat="44.55437" lon="-0.22445">
        <ele>8.79</ele>
        <time>2020-07-29T06:52:20Z</time>
      </trkpt>
      <trkpt lat="44.55432" lon="-0.22465">
        <ele>8.79</ele>
        <time>2020-07-29T06:52:37Z</time>
      </trkpt>
      <trkpt lat="44.55429" lon="-0.2248">
        <ele>8.79</ele>
        <time>2020-07-29T06:53:02Z</time>
      </trkpt>
      <trkpt lat="44.55424" lon="-0.22508">
        <ele>8.79</ele>
        <time>2020-07-29T06:53:22Z</time>
      </trkpt>
      <trkpt lat="44.55423" lon="-0.22511">
        <ele>9.75</ele>
        <time>2020-07-29T06:53:24Z</time>
      </trkpt>
      <trkpt lat="44.55419" lon="-0.22546">
        <ele>9.75</ele>
        <time>2020-07-29T06:53:45Z</time>
      </trkpt>
      <trkpt lat="44.55417" lon="-0.2256">
        <ele>8.31</ele>
        <time>2020-07-29T06:53:55Z</time>
      </trkpt>
      <trkpt lat="44.55411" lon="-0.22594">
        <ele>8.31</ele>
        <time>2020-07-29T06:54:16Z</time>
      </trkpt>
      <trkpt lat="44.55406" lon="-0.22622">
        <ele>9.75</ele>
        <time>2020-07-29T06:54:33Z</time>
      </trkpt>
      <trkpt lat="44.55401" lon="-0.22645">
        <ele>9.75</ele>
        <time>2020-07-29T06:54:49Z</time>
      </trkpt>
      <trkpt lat="44.55397" lon="-0.22658">
        <ele>9.75</ele>
        <time>2020-07-29T06:55:03Z</time>
      </trkpt>
      <trkpt lat="44.55396" lon="-0.22664">
        <ele>9.75</ele>
        <time>2020-07-29T06:55:07Z</time>
      </trkpt>
      <trkpt lat="44.55389" lon="-0.22691">
        <ele>8.31</ele>
        <time>2020-07-29T06:55:25Z</time>
      </trkpt>
      <trkpt lat="44.55381" lon="-0.22728">
        <ele>8.79</ele>
        <time>2020-07-29T06:55:49Z</time>
      </trkpt>
      <trkpt lat="44.55377" lon="-0.22753">
        <ele>7.35</ele>
        <time>2020-07-29T06:56:06Z</time>
      </trkpt>
      <trkpt lat="44.55369" lon="-0.22778">
        <ele>8.79</ele>
        <time>2020-07-29T06:56:21Z</time>
      </trkpt>
      <trkpt lat="44.55365" lon="-0.22797">
        <ele>8.79</ele>
        <time>2020-07-29T06:56:34Z</time>
      </trkpt>
      <trkpt lat="44.55359" lon="-0.22828">
        <ele>8.79</ele>
        <time>2020-07-29T06:56:54Z</time>
      </trkpt>
      <trkpt lat="44.55355" lon="-0.22863">
        <ele>7.35</ele>
        <time>2020-07-29T06:57:17Z</time>
      </trkpt>
      <trkpt lat="44.55348" lon="-0.22896">
        <ele>7.35</ele>
        <time>2020-07-29T06:57:38Z</time>
      </trkpt>
      <trkpt lat="44.55338" lon="-0.22922">
        <ele>7.35</ele>
        <time>2020-07-29T06:57:58Z</time>
      </trkpt>
      <trkpt lat="44.55328" lon="-0.22952">
        <ele>7.35</ele>
        <time>2020-07-29T06:58:21Z</time>
      </trkpt>
      <trkpt lat="44.55326" lon="-0.2296">
        <ele>7.35</ele>
        <time>2020-07-29T06:58:43Z</time>
      </trkpt>
      <trkpt lat="44.55324" lon="-0.22966">
        <ele>7.35</ele>
        <time>2020-07-29T06:59:15Z</time>
      </trkpt>
      <trkpt lat="44.55326" lon="-0.22971">
        <ele>7.83</ele>
        <time>2020-07-29T06:59:46Z</time>
      </trkpt>
      <trkpt lat="44.55325" lon="-0.22962">
        <ele>7.83</ele>
        <time>2020-07-29T07:00:08Z</time>
      </trkpt>
      <trkpt lat="44.55325" lon="-0.22959">
        <ele>7.83</ele>
        <time>2020-07-29T07:00:37Z</time>
      </trkpt>
      <trkpt lat="44.55317" lon="-0.22959">
        <ele>7.83</ele>
        <time>2020-07-29T07:01:02Z</time>
      </trkpt>
      <trkpt lat="44.5532" lon="-0.22957">
        <ele>7.83</ele>
        <time>2020-07-29T07:01:26Z</time>
      </trkpt>
      <trkpt lat="44.55321" lon="-0.22957">
        <ele>8.31</ele>
        <time>2020-07-29T07:01:53Z</time>
      </trkpt>
      <trkpt lat="44.55326" lon="-0.22966">
        <ele>8.31</ele>
        <time>2020-07-29T07:02:15Z</time>
      </trkpt>
      <trkpt lat="44.55325" lon="-0.22966">
        <ele>8.31</ele>
        <time>2020-07-29T07:02:41Z</time>
      </trkpt>
      <trkpt lat="44.55329" lon="-0.22969">
        <ele>8.31</ele>
        <time>2020-07-29T07:03:12Z</time>
      </trkpt>
      <trkpt lat="44.55325" lon="-0.22975">
        <ele>8.31</ele>
        <time>2020-07-29T07:03:41Z</time>
      </trkpt>
      <trkpt lat="44.55324" lon="-0.22971">
        <ele>8.31</ele>
        <time>2020-07-29T07:03:52Z</time>
      </trkpt>
      <trkpt lat="44.55318" lon="-0.23002">
        <ele>8.31</ele>
        <time>2020-07-29T07:04:13Z</time>
      </trkpt>
      <trkpt lat="44.55316" lon="-0.23034">
        <ele>9.75</ele>
        <time>2020-07-29T07:04:33Z</time>
      </trkpt>
      <trkpt lat="44.55318" lon="-0.23055">
        <ele>10.23</ele>
        <time>2020-07-29T07:04:44Z</time>
      </trkpt>
      <trkpt lat="44.55317" lon="-0.23082">
        <ele>10.71</ele>
        <time>2020-07-29T07:05:00Z</time>
      </trkpt>
      <trkpt lat="44.55323" lon="-0.23101">
        <ele>9.75</ele>
        <time>2020-07-29T07:05:19Z</time>
      </trkpt>
      <trkpt lat="44.55354" lon="-0.23099">
        <ele>9.27</ele>
        <time>2020-07-29T07:05:42Z</time>
      </trkpt>
      <trkpt lat="44.55377" lon="-0.23097">
        <ele>7.83</ele>
        <time>2020-07-29T07:06:01Z</time>
      </trkpt>
      <trkpt lat="44.55402" lon="-0.23097">
        <ele>8.31</ele>
        <time>2020-07-29T07:06:21Z</time>
      </trkpt>
      <trkpt lat="44.55428" lon="-0.23107">
        <ele>7.83</ele>
        <time>2020-07-29T07:06:42Z</time>
      </trkpt>
      <trkpt lat="44.55454" lon="-0.23125">
        <ele>7.83</ele>
        <time>2020-07-29T07:07:02Z</time>
      </trkpt>
      <trkpt lat="44.55474" lon="-0.23138">
        <ele>7.83</ele>
        <time>2020-07-29T07:07:23Z</time>
      </trkpt>
      <trkpt lat="44.55491" lon="-0.23167">
        <ele>7.83</ele>
        <time>2020-07-29T07:07:46Z</time>
      </trkpt>
      <trkpt lat="44.55487" lon="-0.23204">
        <ele>8.31</ele>
        <time>2020-07-29T07:08:06Z</time>
      </trkpt>
      <trkpt lat="44.55488" lon="-0.23217">
        <ele>6.87</ele>
        <time>2020-07-29T07:08:15Z</time>
      </trkpt>
      <trkpt lat="44.55485" lon="-0.23237">
        <ele>8.31</ele>
        <time>2020-07-29T07:08:26Z</time>
      </trkpt>
      <trkpt lat="44.55482" lon="-0.23262">
        <ele>8.31</ele>
        <time>2020-07-29T07:08:42Z</time>
      </trkpt>
      <trkpt lat="44.5548" lon="-0.23302">
        <ele>8.31</ele>
        <time>2020-07-29T07:09:06Z</time>
      </trkpt>
      <trkpt lat="44.55479" lon="-0.23333">
        <ele>8.31</ele>
        <time>2020-07-29T07:09:25Z</time>
      </trkpt>
      <trkpt lat="44.55479" lon="-0.23372">
        <ele>8.31</ele>
        <time>2020-07-29T07:09:45Z</time>
      </trkpt>
      <trkpt lat="44.55479" lon="-0.23399">
        <ele>8.79</ele>
        <time>2020-07-29T07:10:03Z</time>
      </trkpt>
      <trkpt lat="44.55481" lon="-0.23428">
        <ele>8.79</ele>
        <time>2020-07-29T07:10:23Z</time>
      </trkpt>
      <trkpt lat="44.55483" lon="-0.2344">
        <ele>8.79</ele>
        <time>2020-07-29T07:10:43Z</time>
      </trkpt>
      <trkpt lat="44.55484" lon="-0.2346">
        <ele>7.35</ele>
        <time>2020-07-29T07:10:58Z</time>
      </trkpt>
      <trkpt lat="44.55484" lon="-0.23463">
        <ele>8.79</ele>
        <time>2020-07-29T07:11:00Z</time>
      </trkpt>
      <trkpt lat="44.55485" lon="-0.23498">
        <ele>7.83</ele>
        <time>2020-07-29T07:11:18Z</time>
      </trkpt>
      <trkpt lat="44.55486" lon="-0.23534">
        <ele>8.79</ele>
        <time>2020-07-29T07:11:40Z</time>
      </trkpt>
      <trkpt lat="44.55483" lon="-0.23566">
        <ele>8.79</ele>
        <time>2020-07-29T07:11:59Z</time>
      </trkpt>
      <trkpt lat="44.55483" lon="-0.23573">
        <ele>7.35</ele>
        <time>2020-07-29T07:12:04Z</time>
      </trkpt>
      <trkpt lat="44.55483" lon="-0.23574">
        <ele>7.35</ele>
        <time>2020-07-29T07:12:05Z</time>
      </trkpt>
      <trkpt lat="44.55483" lon="-0.23579">
        <ele>9.27</ele>
        <time>2020-07-29T07:12:08Z</time>
      </trkpt>
      <trkpt lat="44.55483" lon="-0.23582">
        <ele>7.83</ele>
        <time>2020-07-29T07:12:10Z</time>
      </trkpt>
      <trkpt lat="44.55484" lon="-0.23598">
        <ele>7.35</ele>
        <time>2020-07-29T07:12:19Z</time>
      </trkpt>
      <trkpt lat="44.55484" lon="-0.23603">
        <ele>8.79</ele>
        <time>2020-07-29T07:12:22Z</time>
      </trkpt>
      <trkpt lat="44.55484" lon="-0.23633">
        <ele>8.79</ele>
        <time>2020-07-29T07:12:41Z</time>
      </trkpt>
      <trkpt lat="44.55485" lon="-0.23641">
        <ele>7.83</ele>
        <time>2020-07-29T07:12:47Z</time>
      </trkpt>
      <trkpt lat="44.55486" lon="-0.23645">
        <ele>8.79</ele>
        <time>2020-07-29T07:12:49Z</time>
      </trkpt>
      <trkpt lat="44.55486" lon="-0.23682">
        <ele>9.27</ele>
        <time>2020-07-29T07:13:11Z</time>
      </trkpt>
      <trkpt lat="44.55486" lon="-0.23686">
        <ele>7.35</ele>
        <time>2020-07-29T07:13:14Z</time>
      </trkpt>
      <trkpt lat="44.55487" lon="-0.23688">
        <ele>9.27</ele>
        <time>2020-07-29T07:13:16Z</time>
      </trkpt>
      <trkpt lat="44.55489" lon="-0.23697">
        <ele>7.83</ele>
        <time>2020-07-29T07:13:21Z</time>
      </trkpt>
      <trkpt lat="44.55491" lon="-0.23701">
        <ele>7.83</ele>
        <time>2020-07-29T07:13:24Z</time>
      </trkpt>
      <trkpt lat="44.55495" lon="-0.23731">
        <ele>9.27</ele>
        <time>2020-07-29T07:13:43Z</time>
      </trkpt>
      <trkpt lat="44.55493" lon="-0.23739">
        <ele>9.27</ele>
        <time>2020-07-29T07:13:49Z</time>
      </trkpt>
      <trkpt lat="44.55493" lon="-0.23752">
        <ele>9.75</ele>
        <time>2020-07-29T07:14:05Z</time>
      </trkpt>
      <trkpt lat="44.5549" lon="-0.23762">
        <ele>9.75</ele>
        <time>2020-07-29T07:14:17Z</time>
      </trkpt>
      <trkpt lat="44.55488" lon="-0.23771">
        <ele>9.75</ele>
        <time>2020-07-29T07:14:21Z</time>
      </trkpt>
      <trkpt lat="44.55487" lon="-0.23781">
        <ele>9.75</ele>
        <time>2020-07-29T07:14:26Z</time>
      </trkpt>
      <trkpt lat="44.55502" lon="-0.23785">
        <ele>9.75</ele>
        <time>2020-07-29T07:14:39Z</time>
      </trkpt>
      <trkpt lat="44.55512" lon="-0.23782">
        <ele>8.79</ele>
        <time>2020-07-29T07:14:48Z</time>
      </trkpt>
      <trkpt lat="44.55514" lon="-0.23783">
        <ele>10.23</ele>
        <time>2020-07-29T07:14:50Z</time>
      </trkpt>
      <trkpt lat="44.55534" lon="-0.23779">
        <ele>8.79</ele>
        <time>2020-07-29T07:15:08Z</time>
      </trkpt>
      <trkpt lat="44.55544" lon="-0.23781">
        <ele>10.23</ele>
        <time>2020-07-29T07:15:15Z</time>
      </trkpt>
      <trkpt lat="44.5555" lon="-0.2378">
        <ele>8.79</ele>
        <time>2020-07-29T07:15:19Z</time>
      </trkpt>
      <trkpt lat="44.55576" lon="-0.23783">
        <ele>10.23</ele>
        <time>2020-07-29T07:15:41Z</time>
      </trkpt>
      <trkpt lat="44.55582" lon="-0.23787">
        <ele>8.79</ele>
        <time>2020-07-29T07:15:46Z</time>
      </trkpt>
      <trkpt lat="44.55586" lon="-0.23789">
        <ele>10.23</ele>
        <time>2020-07-29T07:15:50Z</time>
      </trkpt>
      <trkpt lat="44.55591" lon="-0.2379">
        <ele>8.79</ele>
        <time>2020-07-29T07:15:54Z</time>
      </trkpt>
      <trkpt lat="44.55601" lon="-0.23798">
        <ele>10.71</ele>
        <time>2020-07-29T07:16:05Z</time>
      </trkpt>
      <trkpt lat="44.55603" lon="-0.23803">
        <ele>9.27</ele>
        <time>2020-07-29T07:16:08Z</time>
      </trkpt>
      <trkpt lat="44.55623" lon="-0.23824">
        <ele>10.23</ele>
        <time>2020-07-29T07:16:30Z</time>
      </trkpt>
      <trkpt lat="44.5563" lon="-0.23825">
        <ele>10.23</ele>
        <time>2020-07-29T07:16:35Z</time>
      </trkpt>
      <trkpt lat="44.55637" lon="-0.23832">
        <ele>9.27</ele>
        <time>2020-07-29T07:16:43Z</time>
      </trkpt>
      <trkpt lat="44.55652" lon="-0.23854">
        <ele>10.23</ele>
        <time>2020-07-29T07:17:01Z</time>
      </trkpt>
      <trkpt lat="44.55667" lon="-0.23885">
        <ele>9.75</ele>
        <time>2020-07-29T07:17:23Z</time>
      </trkpt>
      <trkpt lat="44.5567" lon="-0.23892">
        <ele>8.79</ele>
        <time>2020-07-29T07:17:28Z</time>
      </trkpt>
      <trkpt lat="44.55676" lon="-0.23906">
        <ele>9.75</ele>
        <time>2020-07-29T07:17:47Z</time>
      </trkpt>
      <trkpt lat="44.55674" lon="-0.23909">
        <ele>9.75</ele>
        <time>2020-07-29T07:18:08Z</time>
      </trkpt>
      <trkpt lat="44.55678" lon="-0.23917">
        <ele>8.31</ele>
        <time>2020-07-29T07:18:20Z</time>
      </trkpt>
      <trkpt lat="44.55679" lon="-0.23925">
        <ele>9.75</ele>
        <time>2020-07-29T07:18:24Z</time>
      </trkpt>
      <trkpt lat="44.5568" lon="-0.23929">
        <ele>7.83</ele>
        <time>2020-07-29T07:18:26Z</time>
      </trkpt>
      <trkpt lat="44.5568" lon="-0.23933">
        <ele>9.27</ele>
        <time>2020-07-29T07:18:28Z</time>
      </trkpt>
      <trkpt lat="44.55683" lon="-0.23949">
        <ele>7.83</ele>
        <time>2020-07-29T07:18:38Z</time>
      </trkpt>
      <trkpt lat="44.55688" lon="-0.23982">
        <ele>8.31</ele>
        <time>2020-07-29T07:18:59Z</time>
      </trkpt>
      <trkpt lat="44.55689" lon="-0.24008">
        <ele>8.31</ele>
        <time>2020-07-29T07:19:15Z</time>
      </trkpt>
      <trkpt lat="44.55691" lon="-0.24035">
        <ele>8.31</ele>
        <time>2020-07-29T07:19:34Z</time>
      </trkpt>
      <trkpt lat="44.55694" lon="-0.24052">
        <ele>7.83</ele>
        <time>2020-07-29T07:19:54Z</time>
      </trkpt>
      <trkpt lat="44.55699" lon="-0.24075">
        <ele>8.31</ele>
        <time>2020-07-29T07:20:10Z</time>
      </trkpt>
      <trkpt lat="44.55701" lon="-0.24109">
        <ele>6.87</ele>
        <time>2020-07-29T07:20:30Z</time>
      </trkpt>
      <trkpt lat="44.55698" lon="-0.24129">
        <ele>8.31</ele>
        <time>2020-07-29T07:20:42Z</time>
      </trkpt>
      <trkpt lat="44.55697" lon="-0.24141">
        <ele>6.87</ele>
        <time>2020-07-29T07:20:49Z</time>
      </trkpt>
      <trkpt lat="44.55694" lon="-0.24152">
        <ele>6.87</ele>
        <time>2020-07-29T07:20:56Z</time>
      </trkpt>
      <trkpt lat="44.55685" lon="-0.24184">
        <ele>8.31</ele>
        <time>2020-07-29T07:21:18Z</time>
      </trkpt>
      <trkpt lat="44.55681" lon="-0.24194">
        <ele>6.87</ele>
        <time>2020-07-29T07:21:38Z</time>
      </trkpt>
      <trkpt lat="44.55678" lon="-0.24196">
        <ele>7.35</ele>
        <time>2020-07-29T07:22:00Z</time>
      </trkpt>
      <trkpt lat="44.55683" lon="-0.24199">
        <ele>7.35</ele>
        <time>2020-07-29T07:22:29Z</time>
      </trkpt>
      <trkpt lat="44.55681" lon="-0.24207">
        <ele>7.35</ele>
        <time>2020-07-29T07:23:01Z</time>
      </trkpt>
      <trkpt lat="44.55682" lon="-0.24207">
        <ele>7.83</ele>
        <time>2020-07-29T07:23:34Z</time>
      </trkpt>
      <trkpt lat="44.5568" lon="-0.24201">
        <ele>7.83</ele>
        <time>2020-07-29T07:24:04Z</time>
      </trkpt>
      <trkpt lat="44.55669" lon="-0.24233">
        <ele>7.83</ele>
        <time>2020-07-29T07:24:26Z</time>
      </trkpt>
      <trkpt lat="44.55665" lon="-0.24242">
        <ele>7.35</ele>
        <time>2020-07-29T07:24:30Z</time>
      </trkpt>
      <trkpt lat="44.55653" lon="-0.24282">
        <ele>8.79</ele>
        <time>2020-07-29T07:24:54Z</time>
      </trkpt>
      <trkpt lat="44.55643" lon="-0.24309">
        <ele>8.79</ele>
        <time>2020-07-29T07:25:12Z</time>
      </trkpt>
      <trkpt lat="44.55648" lon="-0.24315">
        <ele>7.83</ele>
        <time>2020-07-29T07:25:18Z</time>
      </trkpt>
      <trkpt lat="44.5566" lon="-0.2431">
        <ele>7.83</ele>
        <time>2020-07-29T07:25:43Z</time>
      </trkpt>
      <trkpt lat="44.55652" lon="-0.2431">
        <ele>7.83</ele>
        <time>2020-07-29T07:26:06Z</time>
      </trkpt>
      <trkpt lat="44.55652" lon="-0.24313">
        <ele>7.83</ele>
        <time>2020-07-29T07:26:31Z</time>
      </trkpt>
      <trkpt lat="44.55648" lon="-0.24318">
        <ele>7.83</ele>
        <time>2020-07-29T07:26:59Z</time>
      </trkpt>
      <trkpt lat="44.55646" lon="-0.2431">
        <ele>7.83</ele>
        <time>2020-07-29T07:27:28Z</time>
      </trkpt>
      <trkpt lat="44.55636" lon="-0.24306">
        <ele>8.79</ele>
        <time>2020-07-29T07:27:38Z</time>
      </trkpt>
      <trkpt lat="44.55611" lon="-0.24318">
        <ele>9.27</ele>
        <time>2020-07-29T07:27:58Z</time>
      </trkpt>
      <trkpt lat="44.55586" lon="-0.24338">
        <ele>9.75</ele>
        <time>2020-07-29T07:28:18Z</time>
      </trkpt>
      <trkpt lat="44.55572" lon="-0.24355">
        <ele>10.71</ele>
        <time>2020-07-29T07:28:34Z</time>
      </trkpt>
      <trkpt lat="44.55572" lon="-0.24357">
        <ele>10.71</ele>
        <time>2020-07-29T07:28:35Z</time>
      </trkpt>
      <trkpt lat="44.55572" lon="-0.24358">
        <ele>11.19</ele>
        <time>2020-07-29T07:28:36Z</time>
      </trkpt>
      <trkpt lat="44.55573" lon="-0.2436">
        <ele>11.19</ele>
        <time>2020-07-29T07:28:37Z</time>
      </trkpt>
      <trkpt lat="44.55573" lon="-0.24362">
        <ele>11.19</ele>
        <time>2020-07-29T07:28:38Z</time>
      </trkpt>
      <trkpt lat="44.55577" lon="-0.24377">
        <ele>10.23</ele>
        <time>2020-07-29T07:28:49Z</time>
      </trkpt>
      <trkpt lat="44.5558" lon="-0.2439">
        <ele>11.67</ele>
        <time>2020-07-29T07:28:57Z</time>
      </trkpt>
      <trkpt lat="44.55587" lon="-0.24417">
        <ele>10.23</ele>
        <time>2020-07-29T07:29:14Z</time>
      </trkpt>
      <trkpt lat="44.55592" lon="-0.24449">
        <ele>10.23</ele>
        <time>2020-07-29T07:29:34Z</time>
      </trkpt>
      <trkpt lat="44.55592" lon="-0.24453">
        <ele>11.67</ele>
        <time>2020-07-29T07:29:37Z</time>
      </trkpt>
      <trkpt lat="44.55596" lon="-0.24477">
        <ele>10.23</ele>
        <time>2020-07-29T07:29:55Z</time>
      </trkpt>
      <trkpt lat="44.55602" lon="-0.24498">
        <ele>10.23</ele>
        <time>2020-07-29T07:30:16Z</time>
      </trkpt>
      <trkpt lat="44.55612" lon="-0.2451">
        <ele>10.23</ele>
        <time>2020-07-29T07:30:35Z</time>
      </trkpt>
      <trkpt lat="44.55611" lon="-0.24519">
        <ele>9.75</ele>
        <time>2020-07-29T07:31:00Z</time>
      </trkpt>
      <trkpt lat="44.55615" lon="-0.24547">
        <ele>9.27</ele>
        <time>2020-07-29T07:31:20Z</time>
      </trkpt>
      <trkpt lat="44.55619" lon="-0.2455">
        <ele>9.27</ele>
        <time>2020-07-29T07:31:39Z</time>
      </trkpt>
      <trkpt lat="44.55621" lon="-0.2455">
        <ele>9.27</ele>
        <time>2020-07-29T07:32:05Z</time>
      </trkpt>
      <trkpt lat="44.55617" lon="-0.24555">
        <ele>9.27</ele>
        <time>2020-07-29T07:32:20Z</time>
      </trkpt>
      <trkpt lat="44.55616" lon="-0.24552">
        <ele>9.27</ele>
        <time>2020-07-29T07:32:36Z</time>
      </trkpt>
      <trkpt lat="44.55617" lon="-0.24559">
        <ele>9.27</ele>
        <time>2020-07-29T07:32:52Z</time>
      </trkpt>
      <trkpt lat="44.5562" lon="-0.24567">
        <ele>8.79</ele>
        <time>2020-07-29T07:33:12Z</time>
      </trkpt>
      <trkpt lat="44.55622" lon="-0.24578">
        <ele>8.79</ele>
        <time>2020-07-29T07:33:36Z</time>
      </trkpt>
      <trkpt lat="44.55625" lon="-0.24592">
        <ele>8.79</ele>
        <time>2020-07-29T07:33:53Z</time>
      </trkpt>
      <trkpt lat="44.55626" lon="-0.24597">
        <ele>8.79</ele>
        <time>2020-07-29T07:34:14Z</time>
      </trkpt>
      <trkpt lat="44.55625" lon="-0.24601">
        <ele>8.79</ele>
        <time>2020-07-29T07:34:47Z</time>
      </trkpt>
      <trkpt lat="44.55619" lon="-0.24605">
        <ele>8.79</ele>
        <time>2020-07-29T07:35:15Z</time>
      </trkpt>
      <trkpt lat="44.55613" lon="-0.24623">
        <ele>8.79</ele>
        <time>2020-07-29T07:35:32Z</time>
      </trkpt>
      <trkpt lat="44.55612" lon="-0.24625">
        <ele>10.23</ele>
        <time>2020-07-29T07:35:34Z</time>
      </trkpt>
      <trkpt lat="44.55614" lon="-0.24662">
        <ele>10.71</ele>
        <time>2020-07-29T07:35:56Z</time>
      </trkpt>
      <trkpt lat="44.55613" lon="-0.24691">
        <ele>11.67</ele>
        <time>2020-07-29T07:36:10Z</time>
      </trkpt>
      <trkpt lat="44.55614" lon="-0.24702">
        <ele>10.71</ele>
        <time>2020-07-29T07:36:18Z</time>
      </trkpt>
      <trkpt lat="44.55614" lon="-0.24704">
        <ele>12.15</ele>
        <time>2020-07-29T07:36:20Z</time>
      </trkpt>
      <trkpt lat="44.55614" lon="-0.24733">
        <ele>13.12</ele>
        <time>2020-07-29T07:36:37Z</time>
      </trkpt>
      <trkpt lat="44.55615" lon="-0.24764">
        <ele>14.08</ele>
        <time>2020-07-29T07:36:57Z</time>
      </trkpt>
      <trkpt lat="44.55615" lon="-0.24766">
        <ele>14.08</ele>
        <time>2020-07-29T07:36:58Z</time>
      </trkpt>
      <trkpt lat="44.55624" lon="-0.24799">
        <ele>15.52</ele>
        <time>2020-07-29T07:37:19Z</time>
      </trkpt>
      <trkpt lat="44.55629" lon="-0.24823">
        <ele>15.52</ele>
        <time>2020-07-29T07:37:34Z</time>
      </trkpt>
      <trkpt lat="44.55638" lon="-0.24846">
        <ele>15.52</ele>
        <time>2020-07-29T07:37:53Z</time>
      </trkpt>
      <trkpt lat="44.55649" lon="-0.24863">
        <ele>15.52</ele>
        <time>2020-07-29T07:38:04Z</time>
      </trkpt>
      <trkpt lat="44.55663" lon="-0.24895">
        <ele>16</ele>
        <time>2020-07-29T07:38:27Z</time>
      </trkpt>
      <trkpt lat="44.55669" lon="-0.24893">
        <ele>15.04</ele>
        <time>2020-07-29T07:38:40Z</time>
      </trkpt>
      <trkpt lat="44.55673" lon="-0.24888">
        <ele>14.56</ele>
        <time>2020-07-29T07:38:56Z</time>
      </trkpt>
      <trkpt lat="44.55668" lon="-0.24886">
        <ele>14.56</ele>
        <time>2020-07-29T07:39:16Z</time>
      </trkpt>
      <trkpt lat="44.5567" lon="-0.24888">
        <ele>14.56</ele>
        <time>2020-07-29T07:39:41Z</time>
      </trkpt>
      <trkpt lat="44.55672" lon="-0.24898">
        <ele>16</ele>
        <time>2020-07-29T07:39:51Z</time>
      </trkpt>
      <trkpt lat="44.55672" lon="-0.24899">
        <ele>16</ele>
        <time>2020-07-29T07:39:52Z</time>
      </trkpt>
      <trkpt lat="44.5568" lon="-0.24908">
        <ele>16.96</ele>
        <time>2020-07-29T07:40:04Z</time>
      </trkpt>
      <trkpt lat="44.55692" lon="-0.2491">
        <ele>16.96</ele>
        <time>2020-07-29T07:40:24Z</time>
      </trkpt>
      <trkpt lat="44.55693" lon="-0.24915">
        <ele>16.96</ele>
        <time>2020-07-29T07:40:41Z</time>
      </trkpt>
      <trkpt lat="44.55692" lon="-0.24915">
        <ele>16.96</ele>
        <time>2020-07-29T07:41:19Z</time>
      </trkpt>
      <trkpt lat="44.55691" lon="-0.24916">
        <ele>16.96</ele>
        <time>2020-07-29T07:41:47Z</time>
      </trkpt>
      <trkpt lat="44.55672" lon="-0.24929">
        <ele>15.52</ele>
        <time>2020-07-29T07:42:06Z</time>
      </trkpt>
      <trkpt lat="44.55664" lon="-0.24936">
        <ele>16.96</ele>
        <time>2020-07-29T07:42:12Z</time>
      </trkpt>
      <trkpt lat="44.55656" lon="-0.24947">
        <ele>16.96</ele>
        <time>2020-07-29T07:42:24Z</time>
      </trkpt>
      <trkpt lat="44.55652" lon="-0.24979">
        <ele>16.96</ele>
        <time>2020-07-29T07:42:41Z</time>
      </trkpt>
      <trkpt lat="44.55648" lon="-0.25014">
        <ele>16.48</ele>
        <time>2020-07-29T07:42:57Z</time>
      </trkpt>
      <trkpt lat="44.55649" lon="-0.25033">
        <ele>16</ele>
        <time>2020-07-29T07:43:07Z</time>
      </trkpt>
      <trkpt lat="44.55651" lon="-0.25055">
        <ele>16</ele>
        <time>2020-07-29T07:43:21Z</time>
      </trkpt>
      <trkpt lat="44.55651" lon="-0.25073">
        <ele>17.44</ele>
        <time>2020-07-29T07:43:35Z</time>
      </trkpt>
      <trkpt lat="44.55652" lon="-0.2508">
        <ele>15.52</ele>
        <time>2020-07-29T07:43:38Z</time>
      </trkpt>
      <trkpt lat="44.55652" lon="-0.25084">
        <ele>16.96</ele>
        <time>2020-07-29T07:43:40Z</time>
      </trkpt>
      <trkpt lat="44.55652" lon="-0.25091">
        <ele>15.04</ele>
        <time>2020-07-29T07:43:44Z</time>
      </trkpt>
      <trkpt lat="44.55652" lon="-0.25093">
        <ele>16.48</ele>
        <time>2020-07-29T07:43:46Z</time>
      </trkpt>
      <trkpt lat="44.55651" lon="-0.25103">
        <ele>16.96</ele>
        <time>2020-07-29T07:43:52Z</time>
      </trkpt>
      <trkpt lat="44.5566" lon="-0.25137">
        <ele>16.96</ele>
        <time>2020-07-29T07:44:10Z</time>
      </trkpt>
      <trkpt lat="44.55667" lon="-0.25166">
        <ele>16.96</ele>
        <time>2020-07-29T07:44:26Z</time>
      </trkpt>
      <trkpt lat="44.5567" lon="-0.25192">
        <ele>16.96</ele>
        <time>2020-07-29T07:44:43Z</time>
      </trkpt>
      <trkpt lat="44.55668" lon="-0.25199">
        <ele>15.52</ele>
        <time>2020-07-29T07:44:48Z</time>
      </trkpt>
      <trkpt lat="44.55655" lon="-0.2521">
        <ele>15.52</ele>
        <time>2020-07-29T07:45:06Z</time>
      </trkpt>
      <trkpt lat="44.55654" lon="-0.25211">
        <ele>15.52</ele>
        <time>2020-07-29T07:45:07Z</time>
      </trkpt>
      <trkpt lat="44.55636" lon="-0.25236">
        <ele>15.52</ele>
        <time>2020-07-29T07:45:26Z</time>
      </trkpt>
      <trkpt lat="44.55633" lon="-0.25256">
        <ele>16.48</ele>
        <time>2020-07-29T07:45:41Z</time>
      </trkpt>
      <trkpt lat="44.55616" lon="-0.25274">
        <ele>16.96</ele>
        <time>2020-07-29T07:45:57Z</time>
      </trkpt>
      <trkpt lat="44.55595" lon="-0.25295">
        <ele>17.44</ele>
        <time>2020-07-29T07:46:13Z</time>
      </trkpt>
      <trkpt lat="44.55581" lon="-0.25312">
        <ele>17.44</ele>
        <time>2020-07-29T07:46:29Z</time>
      </trkpt>
      <trkpt lat="44.55562" lon="-0.25329">
        <ele>16.48</ele>
        <time>2020-07-29T07:46:46Z</time>
      </trkpt>
      <trkpt lat="44.5556" lon="-0.25332">
        <ele>17.92</ele>
        <time>2020-07-29T07:46:48Z</time>
      </trkpt>
      <trkpt lat="44.55553" lon="-0.25341">
        <ele>18.4</ele>
        <time>2020-07-29T07:46:56Z</time>
      </trkpt>
      <trkpt lat="44.55534" lon="-0.25361">
        <ele>18.4</ele>
        <time>2020-07-29T07:47:15Z</time>
      </trkpt>
      <trkpt lat="44.55517" lon="-0.25378">
        <ele>18.88</ele>
        <time>2020-07-29T07:47:33Z</time>
      </trkpt>
      <trkpt lat="44.55513" lon="-0.25384">
        <ele>17.92</ele>
        <time>2020-07-29T07:47:38Z</time>
      </trkpt>
      <trkpt lat="44.55504" lon="-0.25394">
        <ele>19.36</ele>
        <time>2020-07-29T07:47:46Z</time>
      </trkpt>
      <trkpt lat="44.55491" lon="-0.25414">
        <ele>19.36</ele>
        <time>2020-07-29T07:48:04Z</time>
      </trkpt>
      <trkpt lat="44.555" lon="-0.25443">
        <ele>19.84</ele>
        <time>2020-07-29T07:48:22Z</time>
      </trkpt>
      <trkpt lat="44.55501" lon="-0.25445">
        <ele>19.84</ele>
        <time>2020-07-29T07:48:23Z</time>
      </trkpt>
      <trkpt lat="44.555" lon="-0.25448">
        <ele>18.4</ele>
        <time>2020-07-29T07:48:25Z</time>
      </trkpt>
      <trkpt lat="44.555" lon="-0.25452">
        <ele>20.32</ele>
        <time>2020-07-29T07:48:27Z</time>
      </trkpt>
      <trkpt lat="44.55498" lon="-0.25466">
        <ele>20.32</ele>
        <time>2020-07-29T07:48:36Z</time>
      </trkpt>
      <trkpt lat="44.55508" lon="-0.25487">
        <ele>21.77</ele>
        <time>2020-07-29T07:48:53Z</time>
      </trkpt>
      <trkpt lat="44.55519" lon="-0.25517">
        <ele>21.77</ele>
        <time>2020-07-29T07:49:11Z</time>
      </trkpt>
      <trkpt lat="44.55525" lon="-0.25536">
        <ele>22.25</ele>
        <time>2020-07-29T07:49:26Z</time>
      </trkpt>
      <trkpt lat="44.55535" lon="-0.25542">
        <ele>22.73</ele>
        <time>2020-07-29T07:49:42Z</time>
      </trkpt>
      <trkpt lat="44.55539" lon="-0.25544">
        <ele>23.21</ele>
        <time>2020-07-29T07:50:07Z</time>
      </trkpt>
      <trkpt lat="44.55541" lon="-0.25547">
        <ele>23.21</ele>
        <time>2020-07-29T07:50:25Z</time>
      </trkpt>
    </trkseg>
  </trk>
</gpx>